Terminal Aerodrome Forecast
Issued by NWS Duluth, MN

Home | Current Version | Previous Version | Text Only | Print | Product List | Glossary On
Versions: 1 2 3 4 5 6 7 8 9 10 11 12 13 14 15 16 17 18 19 20 21 22
000
FTUS43 KDLH 211100 RRA
TAFINL
TAF
KINL 211146Z 2112/2212 14010KT P6SM SCT005
      TEMPO 2112/2114 5SM BR BKN005
     FM211600 12007KT P6SM VCSH SCT035 BKN080
     FM212000 12008KT 5SM -SHRA BR VCTS SCT015CB BKN050
     FM220000 14006KT P6SM VCSH BKN015
     FM220400 15005KT 5SM BR VCSH BKN012
     FM220800 13004KT 2SM BR BKN008=

USA.gov is the U.S. government's official web portal to all federal, state and local government web resources and services.